createdAt,value
2019-04-25T00:01:33.038Z,40.20
2019-04-25T00:04:02.022Z,40.30
2019-04-25T00:06:29.929Z,40.30
2019-04-25T00:08:57.408Z,40.30
2019-04-25T00:11:24.943Z,40.50
2019-04-25T00:13:52.406Z,40.30
2019-04-25T00:16:21.750Z,40.20
2019-04-25T00:18:49.213Z,40.30
2019-04-25T00:21:36.545Z,40.30
2019-04-25T00:24:12.226Z,40.40
2019-04-25T00:26:43.226Z,40.40
2019-04-25T00:29:10.574Z,40.60
2019-04-25T00:31:38.046Z,40.60
2019-04-25T00:34:06.887Z,40.60
2019-04-25T00:36:34.357Z,40.60
2019-04-25T00:39:02.054Z,40.70
2019-04-25T00:41:29.569Z,40.70
2019-04-25T00:43:57.041Z,40.60
2019-04-25T00:46:24.512Z,41.40
2019-04-25T00:48:52.715Z,40.80
2019-04-25T00:51:21.672Z,40.60
2019-04-25T00:53:50.133Z,40.60
2019-04-25T00:56:18.560Z,40.50
2019-04-25T00:58:51.315Z,40.80
2019-04-25T01:01:21.824Z,40.60
2019-04-25T01:03:49.422Z,40.50
2019-04-25T01:06:16.890Z,40.60
2019-04-25T01:08:44.364Z,40.60
2019-04-25T01:11:11.846Z,40.70
2019-04-25T01:13:39.314Z,40.60
2019-04-25T01:16:06.999Z,40.70
2019-04-25T01:18:35.460Z,40.80
2019-04-25T01:21:04.435Z,40.60
2019-04-25T01:23:33.567Z,40.50
2019-04-25T01:26:01.230Z,41.20
2019-04-25T01:28:28.710Z,40.70
2019-04-25T01:30:56.199Z,40.70
2019-04-25T01:33:25.019Z,40.50
2019-04-25T01:35:59.861Z,40.60
2019-04-25T01:38:34.714Z,40.60
2019-04-25T01:41:09.568Z,40.70
2019-04-25T01:43:38.677Z,40.70
2019-04-25T01:46:06.158Z,40.70
2019-04-25T01:48:33.618Z,40.70
2019-04-25T01:51:01.076Z,40.70
2019-04-25T01:53:28.550Z,40.70
2019-04-25T01:56:02.768Z,40.70
2019-04-25T01:58:25.211Z,40.80
2019-04-25T02:00:54.644Z,41.00
2019-04-25T02:03:22.035Z,40.80
2019-04-25T02:05:49.597Z,40.70
2019-04-25T02:08:17.081Z,40.70
2019-04-25T02:10:46.178Z,40.70
2019-04-25T02:13:18.259Z,40.50
2019-04-25T02:15:45.722Z,41.20
2019-04-25T02:18:13.712Z,40.80
2019-04-25T02:20:41.330Z,40.70
2019-04-25T02:23:08.810Z,40.70
2019-04-25T02:25:36.288Z,40.80
2019-04-25T02:28:11.793Z,40.70
2019-04-25T02:30:39.289Z,40.50
2019-04-25T02:33:09.115Z,41.40
2019-04-25T02:35:35.945Z,40.60
2019-04-25T02:38:08.362Z,40.70
2019-04-25T02:40:33.792Z,40.80
2019-04-25T02:43:03.176Z,40.70
2019-04-25T02:45:38.442Z,40.70
2019-04-25T02:48:24.344Z,40.70
2019-04-25T02:51:10.089Z,40.70
2019-04-25T02:53:44.485Z,40.70
2019-04-25T02:56:27.632Z,40.70
2019-04-25T02:58:40.459Z,40.70
2019-04-25T03:01:18.012Z,40.70
2019-04-25T03:03:38.881Z,40.70
2019-04-25T03:06:09.386Z,40.70
2019-04-25T03:08:35.590Z,40.80
2019-04-25T03:11:05.776Z,40.80
2019-04-25T03:13:34.285Z,40.80
2019-04-25T03:16:03.345Z,40.90
2019-04-25T03:18:34.703Z,40.40
2019-04-25T03:21:13.523Z,40.90
2019-04-25T03:23:42.047Z,40.80
2019-04-25T03:26:07.653Z,41.30
2019-04-25T03:28:35.218Z,40.80
2019-04-25T03:31:08.700Z,40.80
2019-04-25T03:33:31.892Z,40.80
2019-04-25T03:35:59.354Z,40.70
2019-04-25T03:38:26.826Z,40.70
2019-04-25T03:40:54.297Z,40.80
2019-04-25T03:43:23.184Z,40.70
2019-04-25T03:45:50.993Z,41.30
2019-04-25T03:48:18.453Z,40.80
2019-04-25T03:50:45.937Z,40.70
2019-04-25T03:53:13.921Z,40.80
2019-04-25T03:55:41.543Z,40.70
2019-04-25T03:58:10.902Z,40.80
2019-04-25T04:00:38.207Z,40.90
2019-04-25T04:03:06.645Z,40.80
2019-04-25T04:05:34.863Z,40.80
2019-04-25T04:08:04.278Z,40.80
2019-04-25T04:10:33.196Z,40.70
2019-04-25T04:13:00.894Z,40.80
2019-04-25T04:15:28.354Z,40.80
2019-04-25T04:18:00.165Z,40.80
2019-04-25T04:20:38.283Z,40.80
2019-04-25T04:23:11.271Z,40.80
2019-04-25T04:25:38.891Z,40.70
2019-04-25T04:28:06.626Z,40.80
2019-04-25T04:30:34.106Z,40.80
2019-04-25T04:33:01.576Z,40.80
2019-04-25T04:35:29.214Z,40.80
2019-04-25T04:37:56.671Z,40.70
2019-04-25T04:40:24.371Z,40.80
2019-04-25T04:42:53.334Z,40.80
2019-04-25T04:45:21.038Z,40.80
2019-04-25T04:47:48.508Z,40.80
2019-04-25T04:50:16.657Z,40.80
2019-04-25T04:52:44.230Z,40.90
2019-04-25T04:55:13.167Z,40.80
2019-04-25T04:57:43.408Z,40.80
2019-04-25T05:00:10.954Z,40.80
2019-04-25T05:02:58.510Z,40.90
2019-04-25T05:05:44.012Z,40.80
2019-04-25T05:08:29.214Z,40.90
2019-04-25T05:10:57.430Z,40.90
2019-04-25T05:13:25.038Z,40.90
2019-04-25T05:15:53.251Z,40.80
2019-04-25T05:18:34.594Z,40.90
2019-04-25T05:20:50.229Z,40.90
2019-04-25T05:23:17.693Z,41.10
2019-04-25T05:25:45.162Z,41.00
2019-04-25T05:28:15.536Z,40.80
2019-04-25T05:30:43.662Z,41.00
2019-04-25T05:33:11.210Z,40.90
2019-04-25T05:35:38.668Z,40.90
2019-04-25T05:38:06.142Z,40.90
2019-04-25T05:40:35.250Z,40.90
2019-04-25T05:43:04.362Z,41.00
2019-04-25T05:45:34.075Z,40.90
2019-04-25T05:48:01.759Z,40.90
2019-04-25T05:50:29.226Z,40.90
2019-04-25T05:52:56.693Z,40.90
2019-04-25T05:55:25.153Z,41.10
2019-04-25T05:57:53.636Z,41.10
2019-04-25T06:00:21.191Z,41.10
2019-04-25T06:02:48.715Z,41.20
2019-04-25T06:05:17.363Z,41.20
2019-04-25T06:07:44.940Z,41.70
2019-04-25T06:10:20.096Z,41.40
2019-04-25T06:13:05.688Z,41.20
2019-04-25T06:15:33.831Z,41.30
2019-04-25T06:18:09.108Z,41.10
2019-04-25T06:20:37.851Z,41.10
2019-04-25T06:23:06.960Z,41.10
2019-04-25T06:25:39.444Z,41.00
2019-04-25T06:28:05.436Z,41.10
2019-04-25T06:30:33.161Z,41.00
2019-04-25T06:33:00.621Z,41.10
2019-04-25T06:35:28.095Z,41.00
2019-04-25T06:37:55.649Z,40.90
2019-04-25T06:40:24.198Z,40.90
2019-04-25T06:42:53.632Z,40.80
2019-04-25T06:45:41.416Z,40.90
2019-04-25T06:48:20.337Z,40.90
2019-04-25T06:50:48.659Z,40.90
2019-04-25T06:53:16.135Z,40.90
2019-04-25T06:55:44.898Z,40.80
2019-04-25T06:58:14.435Z,40.80
2019-04-25T07:00:55.784Z,40.90
2019-04-25T07:03:10.972Z,40.80
2019-04-25T07:05:40.409Z,40.90
2019-04-25T07:08:07.645Z,41.00
2019-04-25T07:10:35.167Z,41.10
2019-04-25T07:13:04.222Z,41.20
2019-04-25T07:15:32.348Z,41.20
2019-04-25T07:18:01.226Z,41.60
2019-04-25T07:20:28.703Z,41.60
2019-04-25T07:22:56.170Z,41.60
2019-04-25T07:25:27.262Z,41.50
2019-04-25T07:27:56.127Z,41.40
2019-04-25T07:30:32.228Z,41.40
2019-04-25T07:33:01.799Z,41.30
2019-04-25T07:35:29.278Z,41.10
2019-04-25T07:37:56.755Z,41.20
2019-04-25T07:40:25.592Z,41.10
2019-04-25T07:42:53.632Z,41.00
2019-04-25T07:45:21.214Z,41.60
2019-04-25T07:47:49.052Z,40.90
2019-04-25T07:50:16.686Z,40.80
2019-04-25T07:52:44.369Z,40.80
2019-04-25T07:55:13.692Z,40.80
2019-04-25T07:57:42.619Z,40.80
2019-04-25T08:00:14.543Z,40.70
2019-04-25T08:02:43.555Z,40.70
2019-04-25T08:05:14.401Z,40.60
2019-04-25T08:07:43.595Z,40.60
2019-04-25T08:10:11.333Z,40.60
2019-04-25T08:12:39.453Z,40.50
2019-04-25T08:15:11.582Z,40.50
2019-04-25T08:17:57.055Z,40.50
2019-04-25T08:20:24.522Z,40.60
2019-04-25T08:22:58.373Z,40.70
2019-04-25T08:25:21.190Z,40.70
2019-04-25T08:27:48.657Z,40.70
2019-04-25T08:30:16.154Z,40.70
2019-04-25T08:32:44.055Z,40.70
2019-04-25T08:35:11.814Z,40.60
2019-04-25T08:37:39.281Z,40.60
2019-04-25T08:40:06.741Z,40.40
2019-04-25T08:42:35.806Z,40.50
2019-04-25T08:45:04.657Z,40.50
2019-04-25T08:47:34.399Z,40.50
2019-04-25T08:50:03.657Z,40.20
2019-04-25T08:52:31.866Z,40.60
2019-04-25T08:55:04.359Z,40.30
2019-04-25T08:57:48.862Z,40.30
2019-04-25T09:00:18.134Z,40.60
2019-04-25T09:02:47.258Z,40.30
2019-04-25T09:05:18.953Z,40.50
2019-04-25T09:07:46.429Z,40.50
2019-04-25T09:10:15.128Z,40.40
2019-04-25T09:12:44.264Z,40.20
2019-04-25T09:15:12.106Z,40.20
2019-04-25T09:17:39.590Z,40.30
2019-04-25T09:20:07.068Z,40.20
2019-04-25T09:22:36.506Z,40.10
2019-04-25T09:25:05.502Z,40.20
2019-04-25T09:27:34.352Z,40.30
2019-04-25T09:30:02.171Z,40.30
2019-04-25T09:32:29.638Z,40.30
2019-04-25T09:34:57.135Z,40.20
2019-04-25T09:37:24.695Z,40.30
2019-04-25T09:39:56.850Z,40.20
2019-04-25T09:42:24.335Z,40.20
2019-04-25T09:45:03.653Z,40.30
2019-04-25T09:47:31.419Z,40.20
2019-04-25T09:49:59.062Z,40.20
2019-04-25T09:52:26.590Z,40.30
2019-04-25T09:54:55.694Z,40.50
2019-04-25T09:57:36.871Z,40.20
2019-04-25T10:00:05.174Z,40.30
2019-04-25T10:02:32.650Z,40.20
2019-04-25T10:05:00.115Z,40.30
2019-04-25T10:07:27.615Z,40.20
2019-04-25T10:09:55.978Z,40.20
2019-04-25T10:12:23.547Z,40.20
2019-04-25T10:14:58.304Z,40.20
2019-04-25T10:17:25.803Z,40.30
2019-04-25T10:19:53.278Z,40.30
2019-04-25T10:22:20.754Z,40.20
2019-04-25T10:24:58.927Z,40.20
2019-04-25T10:27:17.495Z,40.20
2019-04-25T10:29:50.891Z,40.20
2019-04-25T10:32:15.062Z,40.20
2019-04-25T10:34:44.671Z,40.20
2019-04-25T10:37:13.633Z,40.30
2019-04-25T10:39:41.078Z,41.00
2019-04-25T10:42:08.534Z,40.20
2019-04-25T10:44:36.005Z,40.30
2019-04-25T10:47:03.506Z,40.30
2019-04-25T10:49:30.974Z,40.30
2019-04-25T10:51:58.521Z,40.20
2019-04-25T10:54:26.068Z,40.20
2019-04-25T10:56:53.537Z,40.20
2019-04-25T10:59:21.057Z,40.90
2019-04-25T11:01:48.941Z,41.00
2019-04-25T11:04:20.905Z,39.40
2019-04-25T11:06:49.249Z,38.40
2019-04-25T11:09:19.752Z,37.40
2019-04-25T11:11:48.122Z,36.80
2019-04-25T11:14:15.701Z,36.40
2019-04-25T11:16:45.596Z,36.10
2019-04-25T11:19:13.593Z,35.90
2019-04-25T11:21:42.698Z,35.30
2019-04-25T11:24:10.567Z,35.10
2019-04-25T11:26:38.039Z,35.20
2019-04-25T11:29:05.910Z,37.40
2019-04-25T11:31:35.018Z,36.20
2019-04-25T11:34:03.593Z,36.00
2019-04-25T11:36:31.264Z,35.30
2019-04-25T11:39:16.814Z,35.20
2019-04-25T11:41:46.063Z,34.90
2019-04-25T11:44:13.856Z,34.30
2019-04-25T11:46:41.414Z,34.50
2019-04-25T11:49:09.066Z,34.20
2019-04-25T11:51:36.539Z,34.20
2019-04-25T11:54:04.026Z,34.10
2019-04-25T11:56:31.502Z,34.00
2019-04-25T11:58:59.090Z,34.10
2019-04-25T12:01:26.738Z,34.00
2019-04-25T12:03:55.767Z,34.70
2019-04-25T12:06:24.347Z,34.00
2019-04-25T12:08:53.851Z,34.00
2019-04-25T12:11:21.243Z,34.00
2019-04-25T12:13:48.764Z,34.00
2019-04-25T12:16:16.434Z,34.00
2019-04-25T12:18:47.575Z,34.10
2019-04-25T12:21:13.628Z,33.90
2019-04-25T12:23:41.191Z,33.90
2019-04-25T12:26:08.666Z,33.80
2019-04-25T12:28:36.145Z,33.90
2019-04-25T12:31:03.627Z,34.10
2019-04-25T12:33:31.089Z,33.80
2019-04-25T12:35:58.629Z,33.60
2019-04-25T12:38:26.105Z,33.60
2019-04-25T12:40:54.374Z,33.70
2019-04-25T12:43:24.342Z,33.70
2019-04-25T12:45:59.430Z,33.70
2019-04-25T12:48:27.260Z,33.90
2019-04-25T12:50:55.451Z,34.00
2019-04-25T12:53:23.627Z,34.10
2019-04-25T12:55:51.991Z,34.20
2019-04-25T12:58:20.326Z,34.40
2019-04-25T13:00:52.843Z,34.30
2019-04-25T13:03:17.389Z,34.10
2019-04-25T13:05:44.865Z,34.10
2019-04-25T13:08:14.140Z,34.10
2019-04-25T13:10:41.582Z,34.20
2019-04-25T13:13:09.263Z,34.30
2019-04-25T13:15:36.798Z,34.20
2019-04-25T13:18:04.266Z,34.00
2019-04-25T13:20:31.733Z,34.10
2019-04-25T13:22:59.198Z,34.10
2019-04-25T13:25:26.750Z,34.00
2019-04-25T13:27:58.458Z,33.90
2019-04-25T13:30:30.717Z,33.90
2019-04-25T13:33:06.530Z,34.00
2019-04-25T13:35:35.750Z,34.20
2019-04-25T13:38:03.227Z,34.30
2019-04-25T13:40:30.690Z,34.10
2019-04-25T13:42:58.158Z,34.00
2019-04-25T13:45:25.623Z,33.70
2019-04-25T13:47:53.118Z,33.60
2019-04-25T13:50:21.576Z,33.30
2019-04-25T13:52:49.665Z,33.10
2019-04-25T13:55:17.114Z,33.10
2019-04-25T13:57:44.590Z,32.80
2019-04-25T14:00:12.062Z,32.80
2019-04-25T14:02:39.621Z,32.90
2019-04-25T14:05:07.085Z,32.80
2019-04-25T14:07:34.565Z,32.80
2019-04-25T14:10:03.295Z,32.80
2019-04-25T14:12:31.955Z,33.00
2019-04-25T14:14:59.979Z,33.90
2019-04-25T14:17:35.708Z,34.80
2019-04-25T14:20:23.376Z,34.00
2019-04-25T14:22:53.367Z,33.70
2019-04-25T14:25:21.191Z,33.90
2019-04-25T14:27:48.673Z,33.80
2019-04-25T14:30:17.785Z,33.50
2019-04-25T14:32:45.258Z,33.10
2019-04-25T14:35:14.277Z,32.90
2019-04-25T14:37:43.837Z,32.80
2019-04-25T14:40:11.654Z,32.60
2019-04-25T14:42:39.496Z,32.80
2019-04-25T14:45:06.966Z,32.70
2019-04-25T14:47:34.464Z,32.40
2019-04-25T14:50:01.937Z,32.40
2019-04-25T14:52:29.413Z,32.20
2019-04-25T14:54:58.557Z,32.10
2019-04-25T14:57:30.505Z,32.20
2019-04-25T14:59:58.050Z,32.10
2019-04-25T15:02:27.826Z,32.00
2019-04-25T15:04:55.547Z,32.00
2019-04-25T15:07:23.248Z,32.00
2019-04-25T15:09:51.122Z,32.90
2019-04-25T15:12:18.598Z,32.70
2019-04-25T15:14:46.162Z,32.80
2019-04-25T15:17:13.705Z,32.80
2019-04-25T15:19:41.195Z,33.70
2019-04-25T15:22:08.662Z,33.80
2019-04-25T15:24:36.275Z,33.60
2019-04-25T15:27:03.772Z,33.30
2019-04-25T15:29:31.242Z,33.00
2019-04-25T15:31:58.714Z,33.30
2019-04-25T15:34:27.849Z,33.30
2019-04-25T15:36:56.978Z,33.00
2019-04-25T15:39:35.342Z,32.90
2019-04-25T15:42:13.358Z,32.90
2019-04-25T15:44:59.013Z,32.90
2019-04-25T15:47:28.124Z,32.20
2019-04-25T15:49:55.618Z,32.20
2019-04-25T15:52:23.115Z,31.90
2019-04-25T15:54:50.611Z,32.50
2019-04-25T15:57:18.079Z,32.60
2019-04-25T15:59:45.579Z,33.20
2019-04-25T16:02:14.147Z,33.00
2019-04-25T16:04:41.621Z,33.10
2019-04-25T16:07:09.359Z,33.40
2019-04-25T16:09:36.873Z,33.90
2019-04-25T16:12:04.910Z,34.10
2019-04-25T16:14:33.344Z,34.20
2019-04-25T16:17:01.031Z,34.60
2019-04-25T16:19:29.464Z,35.00
2019-04-25T16:21:57.197Z,35.00
2019-04-25T16:24:24.660Z,35.40
2019-04-25T16:26:52.215Z,35.50
2019-04-25T16:29:19.717Z,35.50
2019-04-25T16:31:47.198Z,35.50
2019-04-25T16:34:14.659Z,35.70
2019-04-25T16:36:42.139Z,35.70
2019-04-25T16:39:11.264Z,35.90
2019-04-25T16:41:40.366Z,36.00
2019-04-25T16:44:12.846Z,36.10
2019-04-25T16:46:40.555Z,36.20
2019-04-25T16:49:08.030Z,36.30
2019-04-25T16:51:35.855Z,36.40
2019-04-25T16:54:03.417Z,36.40
2019-04-25T16:56:30.930Z,36.40
2019-04-25T16:58:58.393Z,36.50
2019-04-25T17:01:25.871Z,36.50
2019-04-25T17:03:53.362Z,36.50
2019-04-25T17:06:20.870Z,36.60
2019-04-25T17:08:48.348Z,36.80
2019-04-25T17:11:16.297Z,37.30
2019-04-25T17:13:45.398Z,37.30
2019-04-25T17:16:17.490Z,37.60
2019-04-25T17:18:49.531Z,37.70
2019-04-25T17:21:17.025Z,38.00
2019-04-25T17:23:44.476Z,38.50
2019-04-25T17:26:12.422Z,38.00
2019-04-25T17:28:41.582Z,38.00
2019-04-25T17:31:27.418Z,37.90
2019-04-25T17:34:05.246Z,38.50
2019-04-25T17:36:37.127Z,38.00
2019-04-25T17:39:12.959Z,37.80
2019-04-25T17:41:40.530Z,38.00
2019-04-25T17:44:08.018Z,38.10
2019-04-25T17:46:36.124Z,38.00
2019-04-25T17:49:03.636Z,38.00
2019-04-25T17:51:31.109Z,38.00
2019-04-25T17:53:58.591Z,38.00
2019-04-25T17:56:26.059Z,38.00
2019-04-25T17:58:53.533Z,38.00
2019-04-25T18:01:22.639Z,38.00
2019-04-25T18:03:50.115Z,38.10
2019-04-25T18:06:17.576Z,38.10
2019-04-25T18:08:45.058Z,38.60
2019-04-25T18:11:12.527Z,38.50
2019-04-25T18:13:41.076Z,38.60
2019-04-25T18:16:19.806Z,38.60
2019-04-25T18:18:48.962Z,38.50
2019-04-25T18:21:16.426Z,38.50
2019-04-25T18:24:01.870Z,38.60
2019-04-25T18:26:31.029Z,38.60
2019-04-25T18:29:00.150Z,38.50
2019-04-25T18:31:27.628Z,38.50
2019-04-25T18:33:56.762Z,38.60
2019-04-25T18:36:35.194Z,38.50
2019-04-25T18:39:08.297Z,38.50
2019-04-25T18:41:37.690Z,38.60
2019-04-25T18:44:13.107Z,38.60
2019-04-25T18:46:42.586Z,38.60
2019-04-25T18:49:10.110Z,38.70
2019-04-25T18:51:38.460Z,38.70
2019-04-25T18:54:10.458Z,38.60
2019-04-25T18:56:43.196Z,38.60
2019-04-25T18:59:29.296Z,38.60
2019-04-25T19:01:58.890Z,38.50
2019-04-25T19:04:31.080Z,38.60
2019-04-25T19:06:58.580Z,38.50
2019-04-25T19:09:26.056Z,38.60
2019-04-25T19:11:53.523Z,38.50
2019-04-25T19:14:20.999Z,39.20
2019-04-25T19:16:48.469Z,38.50
2019-04-25T19:19:15.983Z,38.60
2019-04-25T19:21:43.595Z,38.50
2019-04-25T19:24:11.078Z,38.50
2019-04-25T19:26:40.687Z,38.50
2019-04-25T19:29:07.742Z,38.50
2019-04-25T19:31:35.200Z,38.50
2019-04-25T19:34:02.672Z,38.50
2019-04-25T19:36:30.197Z,38.50
2019-04-25T19:38:57.674Z,38.50
2019-04-25T19:41:29.794Z,38.50
2019-04-25T19:44:00.056Z,38.50
2019-04-25T19:46:41.469Z,38.60
2019-04-25T19:49:09.294Z,38.60
2019-04-25T19:51:36.970Z,38.60
2019-04-25T19:54:05.059Z,38.60
2019-04-25T19:56:32.578Z,38.60
2019-04-25T19:59:00.116Z,38.60
2019-04-25T20:01:27.604Z,38.70
2019-04-25T20:04:05.409Z,38.70
2019-04-25T20:06:34.539Z,38.80
2019-04-25T20:09:03.780Z,38.80
2019-04-25T20:11:32.873Z,38.80
2019-04-25T20:14:00.374Z,38.90
2019-04-25T20:16:29.502Z,39.00
2019-04-25T20:18:56.996Z,38.90
2019-04-25T20:21:24.463Z,38.90
2019-04-25T20:23:52.115Z,38.90
2019-04-25T20:26:19.786Z,38.90
2019-04-25T20:28:48.163Z,39.00
2019-04-25T20:31:15.926Z,38.90
2019-04-25T20:33:43.391Z,38.90
2019-04-25T20:36:17.634Z,38.90
2019-04-25T20:38:41.887Z,38.80
2019-04-25T20:41:09.448Z,38.90
2019-04-25T20:43:37.014Z,38.80
2019-04-25T20:46:04.482Z,38.20
2019-04-25T20:48:31.959Z,38.80
2019-04-25T20:50:59.420Z,38.60
2019-04-25T20:53:26.890Z,38.70
2019-04-25T20:55:54.982Z,38.60
2019-04-25T20:58:22.507Z,38.60
2019-04-25T21:00:51.740Z,38.60
2019-04-25T21:03:19.245Z,38.60
2019-04-25T21:05:48.556Z,38.60
2019-04-25T21:08:17.032Z,38.60
2019-04-25T21:10:44.575Z,38.70
2019-04-25T21:13:14.095Z,38.60
2019-04-25T21:15:49.583Z,38.70
2019-04-25T21:18:25.866Z,38.60
2019-04-25T21:20:53.388Z,38.60
2019-04-25T21:23:20.884Z,38.60
2019-04-25T21:25:48.425Z,38.60
2019-04-25T21:28:15.904Z,38.60
2019-04-25T21:30:43.448Z,38.60
2019-04-25T21:33:10.998Z,38.90
2019-04-25T21:35:38.938Z,38.80
2019-04-25T21:38:06.406Z,38.80
2019-04-25T21:40:41.710Z,38.70
2019-04-25T21:43:16.937Z,38.70
2019-04-25T21:45:44.792Z,38.60
2019-04-25T21:48:12.438Z,38.60
2019-04-25T21:50:40.281Z,38.50
2019-04-25T21:53:08.252Z,38.50
2019-04-25T21:55:36.103Z,38.60
2019-04-25T21:58:04.239Z,38.50
2019-04-25T22:00:51.829Z,39.10
2019-04-25T22:03:21.235Z,38.50
2019-04-25T22:05:48.878Z,38.50
2019-04-25T22:08:16.442Z,38.50
2019-04-25T22:10:43.920Z,38.40
2019-04-25T22:13:17.082Z,38.40
2019-04-25T22:15:40.584Z,39.00
2019-04-25T22:18:08.046Z,38.30
2019-04-25T22:20:35.601Z,38.30
2019-04-25T22:23:03.069Z,38.40
2019-04-25T22:25:30.859Z,38.40
2019-04-25T22:27:58.731Z,38.50
2019-04-25T22:30:26.574Z,38.40
2019-04-25T22:33:01.592Z,38.50
2019-04-25T22:35:30.715Z,38.50
2019-04-25T22:37:58.664Z,38.50
2019-04-25T22:40:26.613Z,38.50
2019-04-25T22:42:54.077Z,38.50
2019-04-25T22:45:21.550Z,38.50
2019-04-25T22:47:49.305Z,38.50
2019-04-25T22:50:16.773Z,38.50
2019-04-25T22:52:44.238Z,38.50
2019-04-25T22:55:12.423Z,38.50
2019-04-25T22:57:40.278Z,38.50
2019-04-25T23:00:09.398Z,38.60
2019-04-25T23:02:41.731Z,38.80
2019-04-25T23:05:16.110Z,38.90
2019-04-25T23:07:42.797Z,39.20
2019-04-25T23:10:10.563Z,39.20
2019-04-25T23:12:38.020Z,39.10
2019-04-25T23:15:06.736Z,39.00
2019-04-25T23:17:34.314Z,38.90
2019-04-25T23:20:04.183Z,38.80
2019-04-25T23:22:31.368Z,38.80
2019-04-25T23:25:00.646Z,38.80
2019-04-25T23:27:29.754Z,38.70
2019-04-25T23:29:57.247Z,38.70
2019-04-25T23:32:25.097Z,38.60
2019-04-25T23:34:52.565Z,38.60
2019-04-25T23:37:20.042Z,38.60
2019-04-25T23:39:47.783Z,38.60
2019-04-25T23:42:15.636Z,38.50
2019-04-25T23:44:43.499Z,38.60
2019-04-25T23:47:10.953Z,38.50
2019-04-25T23:49:38.423Z,38.50
2019-04-25T23:52:07.265Z,38.50
2019-04-25T23:54:34.809Z,38.50
2019-04-25T23:57:02.565Z,38.50
2019-04-25T23:59:30.043Z,38.50
